Time;durP1;ratioP1;P1;durP2;ratioP2;P2;SDS_P1;SDS_P2;PMS_P1;PMS_P2;Temp;Humidity;BMP_temperature;BMP_pressure;BME280_temperature;BME280_humidity;BME280_pressure;Samples;Min_cycle;Max_cycle;Signal;HPM_P1;HPM_P2
2021/12/26 00:01:25;;;;;;;5.67;5.17;;;;;;;-1.28;63.58;100707.19;5091202;28;20661;-77
2021/12/26 00:03:51;;;;;;;7.07;6.20;;;;;;;-1.30;64.05;100711.56;5090470;28;20032;-79
2021/12/26 00:06:21;;;;;;;6.93;5.90;;;;;;;-1.10;64.75;100728.66;5091317;28;20030;-78
2021/12/26 00:08:50;;;;;;;6.25;5.32;;;;;;;-1.13;64.42;100721.72;5081167;28;20024;-77
2021/12/26 00:11:19;;;;;;;7.43;5.60;;;;;;;-1.12;64.45;100725.19;5092923;28;20451;-78
2021/12/26 00:13:45;;;;;;;8.93;6.27;;;;;;;-1.22;64.57;100706.22;5092821;28;20028;-79
2021/12/26 00:16:11;;;;;;;6.60;5.87;;;;;;;-1.12;65.07;100720.81;5056958;28;20044;-78
2021/12/26 00:18:41;;;;;;;7.90;5.30;;;;;;;-1.29;64.50;100681.16;5093070;28;20055;-77
2021/12/26 00:21:06;;;;;;;8.65;5.88;;;;;;;-1.10;64.17;100710.38;5092831;28;20057;-78
2021/12/26 00:23:32;;;;;;;6.23;5.40;;;;;;;-1.23;64.29;100688.88;5091502;28;20054;-79
2021/12/26 00:25:58;;;;;;;6.37;5.77;;;;;;;-1.26;64.97;100689.78;5091178;28;20056;-80
2021/12/26 00:28:25;;;;;;;6.30;5.70;;;;;;;-1.22;64.48;100688.81;5074100;28;20052;-78
2021/12/26 00:30:51;;;;;;;9.50;5.53;;;;;;;-1.11;64.76;100701.69;5090889;28;20020;-77
2021/12/26 00:33:17;;;;;;;9.60;6.17;;;;;;;-1.27;64.21;100689.78;5089685;28;20031;-78
2021/12/26 00:35:42;;;;;;;8.03;6.03;;;;;;;-1.15;64.52;100698.28;5090273;28;20048;-79
2021/12/26 00:38:09;;;;;;;8.17;6.33;;;;;;;-1.39;64.35;100670.84;5092251;28;20039;-77
2021/12/26 00:40:36;;;;;;;9.93;5.90;;;;;;;-1.40;65.51;100666.53;5092217;28;20024;-79
2021/12/26 00:43:01;;;;;;;7.40;5.83;;;;;;;-1.34;65.35;100673.38;5090854;28;20032;-77
2021/12/26 00:45:27;;;;;;;6.60;5.90;;;;;;;-1.22;64.89;100694.03;5073735;28;20433;-79
2021/12/26 00:47:52;;;;;;;8.77;6.00;;;;;;;-1.37;64.78;100673.44;5073373;28;20039;-78
2021/12/26 00:50:23;;;;;;;6.60;6.00;;;;;;;-1.32;64.50;100695.09;5091883;28;20032;-79
2021/12/26 00:52:51;;;;;;;7.07;6.18;;;;;;;-1.27;64.89;100701.09;5090425;28;20028;-78
2021/12/26 00:55:17;;;;;;;7.33;6.03;;;;;;;-1.44;65.05;100690.94;5059013;28;20086;-77
2021/12/26 00:57:44;;;;;;;6.30;5.27;;;;;;;-1.43;65.52;100686.59;5085238;28;20032;-78
2021/12/26 01:00:18;;;;;;;7.60;5.97;;;;;;;-1.32;65.26;100710.75;5091717;28;20058;-78
2021/12/26 01:02:44;;;;;;;7.03;5.70;;;;;;;-1.28;65.04;100715.03;5090368;28;20470;-78
2021/12/26 01:05:10;;;;;;;6.97;5.83;;;;;;;-1.27;65.67;100703.69;5089931;28;20039;-78
2021/12/26 01:10:08;;;;;;;6.33;5.70;;;;;;;-1.19;65.57;100707.03;5091339;28;20024;-79
2021/12/26 01:12:38;;;;;;;8.27;6.67;;;;;;;-1.17;66.21;100707.88;5091108;28;20039;-79
2021/12/26 01:15:09;;;;;;;9.30;5.85;;;;;;;-1.19;65.60;100711.41;5089616;28;20113;-78
2021/12/26 01:17:36;;;;;;;8.73;6.17;;;;;;;-1.19;65.65;100693.13;5089533;28;20487;-78
2021/12/26 01:20:07;;;;;;;9.23;5.67;;;;;;;-1.13;65.59;100705.22;5090151;28;20433;-79
2021/12/26 01:22:37;;;;;;;6.97;6.23;;;;;;;-1.16;66.01;100686.09;5091536;28;20020;-77
2021/12/26 01:25:03;;;;;;;7.67;6.30;;;;;;;-1.07;65.53;100695.53;5090068;28;20480;-78
2021/12/26 01:27:29;;;;;;;8.00;5.70;;;;;;;-1.20;65.94;100687.06;5090930;28;20218;-78
2021/12/26 01:29:55;;;;;;;7.80;6.40;;;;;;;-1.08;66.26;100703.41;5090263;28;20128;-79
2021/12/26 01:32:21;;;;;;;7.10;5.83;;;;;;;-1.12;65.78;100678.22;5089606;28;20039;-78
2021/12/26 01:34:47;;;;;;;7.03;6.07;;;;;;;-1.05;65.34;100698.97;5083356;28;20056;-77
2021/12/26 01:37:13;;;;;;;11.27;6.93;;;;;;;-1.24;65.04;100664.50;5090796;28;20124;-80
2021/12/26 01:39:39;;;;;;;8.53;6.27;;;;;;;-1.28;65.74;100656.78;5090087;28;20032;-78
2021/12/26 01:42:05;;;;;;;8.87;6.53;;;;;;;-1.05;65.51;100685.94;5089814;28;20444;-79
2021/12/26 01:44:34;;;;;;;9.17;6.77;;;;;;;-0.98;65.62;100690.13;5089364;28;20028;-77
2021/12/26 01:46:59;;;;;;;7.23;6.07;;;;;;;-1.12;64.56;100675.63;5089909;28;20024;-79
2021/12/26 01:49:28;;;;;;;7.40;6.13;;;;;;;-1.01;65.34;100684.97;5090886;28;20035;-79
2021/12/26 01:51:58;;;;;;;7.83;6.10;;;;;;;-1.16;65.06;100677.41;5091486;28;20085;-77
2021/12/26 01:54:39;;;;;;;8.75;6.45;;;;;;;-1.08;65.04;100675.53;5089519;28;20032;-77
2021/12/26 01:57:07;;;;;;;6.50;5.70;;;;;;;-0.97;65.12;100681.44;5090888;28;20031;-78
2021/12/26 01:59:33;;;;;;;10.73;7.33;;;;;;;-0.99;64.50;100693.63;5090278;28;20027;-78
2021/12/26 02:02:00;;;;;;;8.67;6.50;;;;;;;-1.10;64.77;100677.31;5090083;28;20402;-78
2021/12/26 02:04:28;;;;;;;9.23;6.60;;;;;;;-0.97;64.87;100694.47;5089236;28;20493;-80
2021/12/26 02:06:58;;;;;;;7.07;6.30;;;;;;;-0.96;64.63;100684.91;5089712;28;20024;-78
2021/12/26 02:09:24;;;;;;;7.40;6.53;;;;;;;-0.99;65.12;100688.44;5090758;28;20032;-78
2021/12/26 02:11:50;;;;;;;8.97;7.00;;;;;;;-1.28;64.51;100634.16;5089101;28;20023;-78
2021/12/26 02:14:21;;;;;;;6.97;5.93;;;;;;;-0.90;65.03;100684.78;5072626;28;20115;-79
2021/12/26 02:16:46;;;;;;;7.70;6.90;;;;;;;-0.92;64.75;100682.19;5091260;28;20024;-80
2021/12/26 02:19:14;;;;;;;9.50;6.50;;;;;;;-0.91;65.42;100683.06;5090975;28;20497;-77
2021/12/26 02:22:00;;;;;;;10.03;7.00;;;;;;;-1.02;65.72;100674.56;5089607;28;20040;-78
2021/12/26 02:24:44;;;;;;;9.50;6.80;;;;;;;-0.90;64.78;100676.94;5090803;28;20024;-77
2021/12/26 02:29:53;;;;;;;8.77;6.30;;;;;;;-0.95;64.45;100666.59;5107455;27;20532;-79
2021/12/26 02:32:19;;;;;;;9.90;6.90;;;;;;;-0.89;64.88;100669.97;5093504;28;20036;-79
2021/12/26 02:34:48;;;;;;;8.70;6.70;;;;;;;-0.94;64.91;100665.72;5094606;28;20024;-77
2021/12/26 02:37:13;;;;;;;7.63;6.37;;;;;;;-0.99;64.95;100644.06;5094676;28;20072;-79
2021/12/26 02:39:39;;;;;;;9.27;6.63;;;;;;;-0.87;64.96;100663.84;5093277;28;20070;-78
2021/12/26 02:42:05;;;;;;;7.30;6.00;;;;;;;-0.86;65.81;100662.94;5092653;28;20118;-77
2021/12/26 02:44:33;;;;;;;11.23;6.53;;;;;;;-0.93;65.64;100643.94;5094141;28;20513;-79
2021/12/26 02:46:59;;;;;;;8.60;6.60;;;;;;;-0.84;65.40;100655.94;5093550;28;20031;-78
2021/12/26 02:49:25;;;;;;;7.17;6.40;;;;;;;-0.91;65.77;100641.31;5075317;28;20036;-77
2021/12/26 02:51:52;;;;;;;9.40;7.00;;;;;;;-0.89;65.19;100639.50;5083435;28;20123;-78
2021/12/26 02:54:18;;;;;;;7.93;6.53;;;;;;;-0.90;65.69;100634.34;5084423;28;20403;-78
2021/12/26 02:56:44;;;;;;;7.17;6.33;;;;;;;-0.73;65.68;100664.44;5092197;28;20028;-78
2021/12/26 02:59:10;;;;;;;9.13;6.97;;;;;;;-0.88;65.12;100641.25;5088286;28;20032;-79
2021/12/26 03:01:35;;;;;;;7.40;6.67;;;;;;;-0.97;65.99;100628.34;5091381;28;20475;-78
2021/12/26 03:04:04;;;;;;;9.70;7.07;;;;;;;-0.75;65.49;100660.13;5093038;28;20047;-78
2021/12/26 03:06:41;;;;;;;8.40;6.63;;;;;;;-0.91;65.21;100649.13;5091995;28;20467;-77
2021/12/26 03:09:11;;;;;;;9.40;7.03;;;;;;;-0.75;65.29;100658.38;5077316;28;20032;-78
2021/12/26 03:11:45;;;;;;;9.50;7.10;;;;;;;-0.74;66.06;100659.22;5094190;28;20360;-77
2021/12/26 03:14:11;;;;;;;10.57;7.70;;;;;;;-0.82;65.75;100642.88;5086925;28;20118;-78
2021/12/26 03:16:36;;;;;;;10.30;7.10;;;;;;;-0.75;66.43;100655.75;5093935;28;20164;-78
2021/12/26 03:19:02;;;;;;;7.23;6.30;;;;;;;-0.74;66.77;100652.25;5093456;28;20032;-78
2021/12/26 03:21:28;;;;;;;9.03;6.90;;;;;;;-0.74;66.61;100643.56;5092221;28;20024;-79
2021/12/26 03:23:54;;;;;;;7.87;6.60;;;;;;;-0.85;66.25;100637.69;5092387;28;20038;-79
2021/12/26 03:26:19;;;;;;;10.80;6.83;;;;;;;-0.89;65.03;100636.91;5092881;28;20034;-79
2021/12/26 03:28:45;;;;;;;8.07;6.73;;;;;;;-1.00;65.76;100621.47;5093780;28;20036;-78
2021/12/26 03:31:10;;;;;;;7.23;6.53;;;;;;;-1.09;65.83;100608.56;5075212;28;20032;-79
2021/12/26 03:33:36;;;;;;;7.07;6.37;;;;;;;-1.12;66.11;100613.00;5093366;28;20028;-80
2021/12/26 03:36:02;;;;;;;9.30;6.43;;;;;;;-1.04;66.01;100631.97;5092323;28;20040;-78
2021/12/26 03:38:29;;;;;;;13.37;6.90;;;;;;;-1.23;65.72;100621.03;5091895;28;20031;-77
2021/12/26 03:40:55;;;;;;;9.33;6.43;;;;;;;-1.11;65.69;100633.84;5093352;28;20043;-79
2021/12/26 03:43:21;;;;;;;7.00;6.27;;;;;;;-1.30;65.95;100614.19;5092823;28;20023;-77
2021/12/26 03:45:49;;;;;;;8.13;6.70;;;;;;;-1.39;66.04;100617.81;5093103;28;20039;-77
2021/12/26 03:48:16;;;;;;;7.30;6.40;;;;;;;-1.24;65.85;100650.59;5092201;28;20016;-78
2021/12/26 03:50:44;;;;;;;8.23;6.97;;;;;;;-1.21;65.99;100642.72;5092073;28;20027;-77
2021/12/26 03:53:11;;;;;;;8.23;6.43;;;;;;;-1.33;65.71;100642.94;5123523;27;20035;-80
2021/12/26 03:55:40;;;;;;;9.03;6.60;;;;;;;-1.37;66.16;100640.38;5092536;28;20055;-77
2021/12/26 03:58:05;;;;;;;6.90;6.30;;;;;;;-1.35;66.10;100639.50;5092143;28;20493;-80
2021/12/26 04:00:31;;;;;;;11.57;6.60;;;;;;;-1.40;66.55;100637.84;5093016;28;20028;-77
2021/12/26 04:02:57;;;;;;;10.00;7.10;;;;;;;-1.50;66.85;100623.25;5092876;28;20043;-78
2021/12/26 04:05:23;;;;;;;8.07;7.00;;;;;;;-1.56;66.90;100612.91;5091975;28;20036;-78
2021/12/26 04:07:48;;;;;;;10.43;6.90;;;;;;;-1.53;66.10;100615.47;5084353;28;20028;-78
2021/12/26 04:10:15;;;;;;;7.90;7.10;;;;;;;-1.51;66.18;100631.94;5091597;28;20482;-79
2021/12/26 04:12:45;;;;;;;7.93;6.27;;;;;;;-1.68;66.43;100597.47;5092599;28;20027;-78
2021/12/26 04:15:14;;;;;;;7.43;6.38;;;;;;;-1.49;66.47;100629.31;5091450;28;20031;-78
2021/12/26 04:17:40;;;;;;;7.00;6.30;;;;;;;-1.51;66.97;100633.69;5092489;28;20419;-80
2021/12/26 04:20:07;;;;;;;9.83;6.53;;;;;;;-1.68;67.04;100597.47;5092744;28;20550;-78
2021/12/26 04:22:33;;;;;;;7.90;6.20;;;;;;;-1.54;66.97;100631.13;5091728;28;20027;-79
2021/12/26 04:24:59;;;;;;;8.17;6.27;;;;;;;-1.66;66.72;100595.69;5092732;28;20029;-79
2021/12/26 04:27:25;;;;;;;7.47;5.90;;;;;;;-1.48;66.41;100625.81;5091059;28;20390;-78
2021/12/26 04:29:52;;;;;;;7.23;6.30;;;;;;;-1.52;67.05;100626.75;5092376;28;20028;-78
2021/12/26 04:32:17;;;;;;;7.60;6.30;;;;;;;-1.58;66.76;100624.25;5092144;28;20058;-78
2021/12/26 04:34:45;;;;;;;7.87;6.67;;;;;;;-1.62;67.08;100624.31;5092100;28;20111;-79
2021/12/26 04:37:11;;;;;;;15.83;7.00;;;;;;;-1.70;66.70;100605.31;5122982;27;20450;-78
2021/12/26 04:39:39;;;;;;;10.27;6.57;;;;;;;-1.73;66.91;100596.69;5091905;28;20044;-78
2021/12/26 04:42:07;;;;;;;8.37;6.57;;;;;;;-1.56;67.06;100622.47;5092053;28;20031;-78
2021/12/26 04:44:35;;;;;;;9.67;7.07;;;;;;;-1.76;66.60;100591.53;5091495;28;20050;-80
2021/12/26 04:47:01;;;;;;;8.40;6.30;;;;;;;-1.69;66.64;100612.25;5090891;28;20028;-77
2021/12/26 04:49:27;;;;;;;8.17;6.57;;;;;;;-1.61;66.89;100614.75;5091243;28;20032;-80
2021/12/26 04:51:52;;;;;;;7.97;6.37;;;;;;;-1.67;66.71;100612.25;5072268;28;20511;-79
2021/12/26 04:54:18;;;;;;;9.27;6.37;;;;;;;-1.76;67.46;100594.16;5073729;28;20035;-79
2021/12/26 04:56:44;;;;;;;9.77;6.37;;;;;;;-1.79;66.80;100609.81;5091533;28;20035;-79
2021/12/26 04:59:09;;;;;;;12.73;6.80;;;;;;;-1.92;67.75;100599.59;5090626;28;20545;-77
2021/12/26 05:01:35;;;;;;;9.33;7.20;;;;;;;-1.85;68.14;100613.41;5085796;28;20516;-79
2021/12/26 05:04:01;;;;;;;7.47;6.50;;;;;;;-1.83;68.14;100620.28;5088229;28;20032;-78
2021/12/26 05:06:27;;;;;;;7.57;6.50;;;;;;;-1.78;67.85;100614.16;5090768;28;20060;-78
2021/12/26 05:08:53;;;;;;;7.80;6.63;;;;;;;-1.90;67.96;100592.63;5090076;28;20024;-77
2021/12/26 05:11:18;;;;;;;8.30;6.80;;;;;;;-1.86;67.90;100603.84;5089295;28;20327;-78
2021/12/26 05:13:43;;;;;;;10.07;7.27;;;;;;;-1.96;68.11;100597.06;5089691;28;20035;-78
2021/12/26 05:16:11;;;;;;;7.90;7.07;;;;;;;-1.87;68.04;100610.81;5091594;28;20038;-78
2021/12/26 05:18:37;;;;;;;9.33;7.07;;;;;;;-2.09;68.20;100572.94;5090118;28;20463;-77
2021/12/26 05:21:03;;;;;;;7.40;6.67;;;;;;;-1.88;67.93;100593.47;5091498;28;20031;-77
2021/12/26 05:23:28;;;;;;;8.03;6.43;;;;;;;-1.95;67.63;100581.41;5091202;28;20027;-79
2021/12/26 05:25:54;;;;;;;8.77;6.97;;;;;;;-1.97;68.03;100579.69;5090406;28;20654;-80
2021/12/26 05:28:24;;;;;;;7.90;7.10;;;;;;;-1.81;68.44;100596.81;5090129;28;20040;-79
2021/12/26 05:30:49;;;;;;;8.32;7.40;;;;;;;-1.87;68.10;100584.75;5073886;28;20107;-77
2021/12/26 05:33:15;;;;;;;6.60;5.93;;;;;;;-1.88;67.80;100580.44;5089390;28;20492;-78
2021/12/26 05:35:40;;;;;;;7.63;6.83;;;;;;;-1.99;67.26;100565.84;5073470;28;20043;-78
2021/12/26 05:38:06;;;;;;;9.77;6.73;;;;;;;-1.88;68.04;100590.84;5092680;28;20055;-79
2021/12/26 05:40:32;;;;;;;8.50;7.13;;;;;;;-2.07;67.64;100551.19;5086929;28;20024;-78
2021/12/26 05:43:00;;;;;;;7.60;6.90;;;;;;;-1.95;67.61;100562.31;5088633;28;20194;-77
2021/12/26 05:45:27;;;;;;;8.37;7.10;;;;;;;-1.95;67.60;100576.19;5088574;28;20016;-77
2021/12/26 05:47:53;;;;;;;8.00;6.77;;;;;;;-1.96;68.19;100564.06;5089977;28;20028;-78
2021/12/26 05:50:20;;;;;;;7.47;6.67;;;;;;;-1.90;67.75;100578.72;5086904;28;20463;-78
2021/12/26 05:52:48;;;;;;;9.53;7.37;;;;;;;-2.06;68.45;100552.03;5089336;28;20486;-77
2021/12/26 05:55:16;;;;;;;7.80;7.03;;;;;;;-2.07;67.67;100572.03;5090155;28;20059;-77
2021/12/26 05:57:42;;;;;;;8.93;7.53;;;;;;;-2.07;68.50;100548.56;5089865;28;20024;-78
2021/12/26 06:00:11;;;;;;;7.87;7.03;;;;;;;-1.96;68.54;100573.63;5087354;28;20028;-79
2021/12/26 06:02:39;;;;;;;8.63;6.65;;;;;;;-2.27;68.56;100516.78;5087387;28;20106;-78
2021/12/26 06:05:09;;;;;;;9.80;7.20;;;;;;;-2.13;68.07;100545.22;5091993;28;20119;-79
2021/12/26 06:07:36;;;;;;;8.95;7.25;;;;;;;-2.08;68.83;100562.50;5093388;28;20036;-78
2021/12/26 06:10:05;;;;;;;8.00;7.20;;;;;;;-2.18;68.37;100552.25;5091056;28;20016;-78
2021/12/26 06:12:31;;;;;;;10.00;7.57;;;;;;;-2.00;68.30;100567.59;5091312;28;20024;-78
2021/12/26 06:14:56;;;;;;;9.87;7.83;;;;;;;-2.23;68.77;100526.28;5076120;28;20193;-78
2021/12/26 06:17:22;;;;;;;10.93;7.43;;;;;;;-2.42;68.90;100499.66;5091264;28;20463;-80
2021/12/26 06:19:47;;;;;;;10.30;7.33;;;;;;;-2.26;68.96;100531.53;5092106;28;20028;-79
2021/12/26 06:22:12;;;;;;;9.20;7.43;;;;;;;-2.08;68.98;100556.44;5091124;28;20487;-79
2021/12/26 06:24:38;;;;;;;11.23;7.50;;;;;;;-2.10;68.57;100568.63;5093067;28;20135;-77
2021/12/26 06:27:04;;;;;;;10.17;7.10;;;;;;;-2.15;68.54;100568.69;5092494;28;20043;-78
2021/12/26 06:29:32;;;;;;;8.40;7.60;;;;;;;-2.26;68.92;100554.97;5104002;28;20039;-78
2021/12/26 06:31:57;;;;;;;9.73;7.17;;;;;;;-2.25;69.26;100559.31;5091716;28;20028;-80
2021/12/26 06:34:23;;;;;;;11.97;8.40;;;;;;;-2.15;69.39;100579.09;5092434;28;20032;-77
2021/12/26 06:36:49;;;;;;;10.47;7.70;;;;;;;-2.19;69.44;100569.63;5085504;28;20044;-77
2021/12/26 06:39:14;;;;;;;7.83;7.03;;;;;;;-2.17;69.34;100582.63;5075449;28;20036;-78
2021/12/26 06:41:42;;;;;;;9.23;7.77;;;;;;;-2.17;69.59;100572.22;5092740;28;20109;-77
2021/12/26 06:44:08;;;;;;;10.20;7.97;;;;;;;-2.15;69.62;100586.91;5072406;28;20052;-78
2021/12/26 06:46:36;;;;;;;9.00;8.13;;;;;;;-2.18;69.77;100560.91;5069873;28;20063;-79
2021/12/26 06:49:03;;;;;;;9.47;7.63;;;;;;;-2.41;69.23;100543.06;5092310;28;20017;-77
2021/12/26 06:51:29;;;;;;;8.93;7.20;;;;;;;-2.18;69.36;100571.31;5092500;28;20444;-77
2021/12/26 06:53:54;;;;;;;9.70;8.10;;;;;;;-2.09;69.52;100585.97;5091429;28;20024;-77
2021/12/26 06:56:20;;;;;;;11.60;7.90;;;;;;;-2.13;69.56;100573.88;5115854;27;20102;-78
2021/12/26 06:58:45;;;;;;;10.40;7.80;;;;;;;-2.14;69.24;100564.34;5088287;28;20364;-77
2021/12/26 07:01:11;;;;;;;10.23;7.57;;;;;;;-2.01;69.42;100570.22;5091991;28;20059;-77
2021/12/26 07:03:38;;;;;;;10.23;7.70;;;;;;;-2.14;69.17;100554.78;5117805;27;20058;-79
2021/12/26 07:06:03;;;;;;;11.07;7.80;;;;;;;-2.19;69.86;100542.72;5091439;28;20024;-77
2021/12/26 07:08:29;;;;;;;13.63;8.03;;;;;;;-2.06;69.37;100568.56;5089240;28;20028;-77
2021/12/26 07:10:54;;;;;;;8.87;7.90;;;;;;;-2.24;69.48;100529.75;5091643;28;20035;-77
2021/12/26 07:13:20;;;;;;;10.90;7.90;;;;;;;-2.43;69.76;100508.34;5085918;28;20387;-77
2021/12/26 07:15:45;;;;;;;9.03;7.47;;;;;;;-2.09;69.59;100570.31;5090549;28;20046;-77
2021/12/26 07:18:13;;;;;;;10.03;7.93;;;;;;;-2.12;69.42;100573.88;5089304;28;20118;-77
2021/12/26 07:20:41;;;;;;;8.40;7.47;;;;;;;-2.12;69.17;100573.88;5071090;28;20056;-77
2021/12/26 07:23:06;;;;;;;10.83;8.33;;;;;;;-2.18;69.47;100560.06;5071668;28;20111;-78
2021/12/26 07:25:32;;;;;;;12.33;8.20;;;;;;;-2.09;69.26;100557.31;5072412;28;20116;-77
2021/12/26 07:28:00;;;;;;;10.70;8.30;;;;;;;-2.09;69.68;100573.81;5091610;28;20024;-77
2021/12/26 07:30:26;;;;;;;12.77;8.07;;;;;;;-2.05;69.58;100582.44;5091731;28;20446;-78
2021/12/26 07:32:52;;;;;;;9.73;8.60;;;;;;;-2.19;69.45;100543.56;5092143;28;20028;-78
2021/12/26 07:35:18;;;;;;;12.83;8.63;;;;;;;-2.32;69.77;100536.84;5073621;28;20089;-77
2021/12/26 07:37:43;;;;;;;12.33;8.93;;;;;;;-2.45;69.89;100504.91;5073669;28;20087;-78
2021/12/26 07:40:10;;;;;;;13.00;9.10;;;;;;;-2.23;69.98;100541.06;5072993;28;20036;-77
2021/12/26 07:42:35;;;;;;;10.70;7.83;;;;;;;-2.08;69.47;100561.66;5073527;28;20064;-78
2021/12/26 07:45:01;;;;;;;12.00;8.70;;;;;;;-2.34;69.92;100542.06;5067681;28;20062;-78
2021/12/26 07:47:28;;;;;;;10.80;8.57;;;;;;;-2.22;70.04;100551.44;5088536;28;20036;-77
2021/12/26 07:49:54;;;;;;;12.27;9.30;;;;;;;-2.15;70.25;100566.06;5083483;28;20114;-79
2021/12/26 07:52:24;;;;;;;9.47;8.20;;;;;;;-2.12;70.38;100562.56;5072884;28;20027;-78
2021/12/26 07:54:49;;;;;;;9.83;8.37;;;;;;;-2.16;70.55;100569.56;5073155;28;20024;-78
2021/12/26 07:57:15;;;;;;;11.53;8.07;;;;;;;-2.24;70.33;100566.22;5091107;28;20081;-77
2021/12/26 07:59:41;;;;;;;14.07;9.17;;;;;;;-2.21;70.99;100576.59;5089067;28;20027;-78
2021/12/26 08:02:07;;;;;;;10.23;8.83;;;;;;;-2.38;70.55;100549.94;5091055;28;20032;-77
2021/12/26 08:04:33;;;;;;;13.20;9.27;;;;;;;-2.29;70.54;100571.50;5072983;28;20028;-80
2021/12/26 08:06:59;;;;;;;9.73;8.77;;;;;;;-2.27;70.86;100574.06;5072835;28;20028;-77
2021/12/26 08:09:25;;;;;;;12.23;9.27;;;;;;;-2.16;70.79;100579.13;5072617;28;20400;-79
2021/12/26 08:11:50;;;;;;;10.40;8.63;;;;;;;-2.13;71.14;100585.16;5090669;28;20103;-77
2021/12/26 08:14:15;;;;;;;11.23;9.13;;;;;;;-2.04;71.24;100578.09;5072458;28;20032;-76
2021/12/26 08:16:41;;;;;;;12.47;9.63;;;;;;;-1.98;71.18;100575.38;5054630;28;20028;-78
2021/12/26 08:19:07;;;;;;;15.33;9.13;;;;;;;-1.96;71.38;100577.09;5072631;28;20024;-79
2021/12/26 08:21:33;;;;;;;11.40;8.97;;;;;;;-1.96;71.46;100573.63;5091268;28;20032;-77
2021/12/26 08:23:59;;;;;;;10.87;9.40;;;;;;;-1.93;71.35;100584.00;5070495;28;20024;-77
2021/12/26 08:26:24;;;;;;;10.57;9.07;;;;;;;-1.92;71.42;100575.28;5073676;28;20035;-81
2021/12/26 08:28:50;;;;;;;9.10;8.20;;;;;;;-2.04;71.55;100552.88;5092050;28;20054;-80
2021/12/26 08:31:17;;;;;;;11.20;9.20;;;;;;;-1.80;71.57;100582.03;5092003;28;20454;-80
2021/12/26 08:33:42;;;;;;;13.67;9.37;;;;;;;-1.84;70.89;100576.88;5057061;28;20040;-79
2021/12/26 08:36:08;;;;;;;11.70;9.30;;;;;;;-1.97;71.23;100558.84;5092145;28;20750;-79
2021/12/26 08:38:34;;;;;;;11.90;8.83;;;;;;;-1.85;71.76;100582.97;5091579;28;20368;-79
2021/12/26 08:41:04;;;;;;;12.03;9.60;;;;;;;-1.79;71.78;100569.00;5073960;28;20028;-80
2021/12/26 08:43:30;;;;;;;12.55;9.10;;;;;;;-1.78;71.93;100562.88;5092550;28;20500;-79
2021/12/26 08:45:55;;;;;;;14.83;9.10;;;;;;;-1.71;71.13;100572.31;5090635;28;20065;-80
2021/12/26 08:48:21;;;;;;;11.20;8.53;;;;;;;-1.63;71.58;100567.81;5073047;28;20055;-81
2021/12/26 08:50:47;;;;;;;11.70;8.47;;;;;;;-1.65;71.89;100550.47;5089970;28;20028;-81
2021/12/26 08:53:12;;;;;;;17.03;9.27;;;;;;;-1.66;71.33;100540.94;5089443;28;20371;-81
2021/12/26 08:55:38;;;;;;;11.13;9.30;;;;;;;-1.60;71.31;100540.84;5069666;28;20104;-79
2021/12/26 08:58:07;;;;;;;13.43;9.13;;;;;;;-1.64;71.78;100532.22;5055505;28;20024;-83
2021/12/26 09:00:35;;;;;;;10.47;8.83;;;;;;;-1.40;71.72;100572.63;5089697;28;20025;-82
2021/12/26 09:03:00;;;;;;;12.80;9.07;;;;;;;-1.52;72.04;100544.16;5088147;28;20655;-79
2021/12/26 09:05:26;;;;;;;13.00;9.60;;;;;;;-1.40;71.80;100551.75;5089659;28;20038;-81
2021/12/26 09:07:51;;;;;;;15.10;9.80;;;;;;;-1.27;71.87;100564.56;5090007;28;20106;-77
2021/12/26 09:10:18;;;;;;;13.83;10.03;;;;;;;-1.26;72.50;100553.25;5089446;28;20020;-78
2021/12/26 09:12:44;;;;;;;13.77;10.43;;;;;;;-1.33;71.35;100530.78;5089943;28;20502;-82
2021/12/26 09:15:11;;;;;;;12.17;9.73;;;;;;;-1.24;71.80;100552.31;5071352;28;20463;-77
2021/12/26 09:17:38;;;;;;;13.60;10.27;;;;;;;-1.38;71.83;100516.09;5089070;28;20130;-79
2021/12/26 09:20:06;;;;;;;12.43;9.70;;;;;;;-1.22;72.27;100534.91;5089301;28;20363;-76
2021/12/26 09:22:31;;;;;;;16.00;10.43;;;;;;;-1.14;71.89;100542.59;5088974;28;20027;-77
2021/12/26 09:24:57;;;;;;;11.10;9.70;;;;;;;-1.05;71.26;100558.06;5089843;28;20027;-80
2021/12/26 09:27:22;;;;;;;12.50;10.37;;;;;;;-0.92;72.08;100561.25;5072224;28;20047;-81
2021/12/26 09:29:48;;;;;;;12.90;9.83;;;;;;;-0.87;71.88;100566.41;5069047;28;20258;-78
2021/12/26 09:32:14;;;;;;;12.73;9.70;;;;;;;-0.95;71.56;100549.13;5090574;28;20066;-79
2021/12/26 09:34:40;;;;;;;12.10;9.20;;;;;;;-0.81;71.58;100574.97;5089050;28;20077;-80
2021/12/26 09:37:08;;;;;;;13.13;9.50;;;;;;;-0.80;71.77;100571.44;5085649;28;20078;-80
2021/12/26 09:39:34;;;;;;;14.90;9.90;;;;;;;-0.88;71.60;100547.28;5067102;28;20117;-78
2021/12/26 09:41:59;;;;;;;12.80;10.17;;;;;;;-0.72;72.07;100566.94;5069037;28;20039;-80
2021/12/26 09:44:25;;;;;;;16.13;10.67;;;;;;;-0.71;72.11;100571.28;5067155;28;20032;-82
2021/12/26 09:46:51;;;;;;;13.47;10.07;;;;;;;-0.70;72.21;100573.00;5066339;28;20324;-80
2021/12/26 09:49:17;;;;;;;14.63;10.20;;;;;;;-0.71;72.11;100576.50;5064240;28;20479;-85
2021/12/26 09:51:43;;;;;;;11.17;9.80;;;;;;;-0.70;71.99;100574.75;5066299;28;20395;-84
2021/12/26 09:54:09;;;;;;;12.17;10.07;;;;;;;-0.84;72.20;100538.47;5051385;28;20040;-78
2021/12/26 09:56:35;;;;;;;14.40;10.43;;;;;;;-0.77;72.03;100537.44;5070017;28;20064;-81
2021/12/26 09:59:03;;;;;;;11.53;9.47;;;;;;;-0.57;72.37;100564.88;5065255;28;20090;-78
2021/12/26 10:01:35;;;;;;;13.57;9.63;;;;;;;-0.49;72.16;100561.22;5060821;28;20766;-79
2021/12/26 10:04:18;;;;;;;13.93;10.27;;;;;;;-0.46;72.21;100558.53;5068064;28;20028;-78
2021/12/26 10:06:45;;;;;;;13.03;10.13;;;;;;;-0.62;71.90;100517.97;5068633;28;20379;-79
2021/12/26 10:09:11;;;;;;;15.30;10.37;;;;;;;-0.35;72.11;100550.47;5067190;28;20082;-79
2021/12/26 10:11:46;;;;;;;15.23;10.63;;;;;;;-0.28;72.65;100549.41;5067408;28;20033;-79
2021/12/26 10:14:17;;;;;;;12.30;9.43;;;;;;;-0.22;72.04;100543.19;5067919;28;20037;-79
2021/12/26 10:16:49;;;;;;;12.20;10.17;;;;;;;-0.24;72.65;100532.78;5061344;28;20031;-80
2021/12/26 10:19:15;;;;;;;13.40;10.80;;;;;;;-0.33;72.24;100499.00;5061008;28;20119;-80
2021/12/26 10:21:47;;;;;;;16.27;10.83;;;;;;;-0.30;72.40;100508.53;5062288;28;20039;-79
2021/12/26 10:24:20;;;;;;;18.70;10.67;;;;;;;-0.15;72.42;100528.19;5062554;28;20074;-77
2021/12/26 10:26:53;;;;;;;15.63;11.33;;;;;;;-0.09;72.23;100525.44;5061923;28;20031;-77
2021/12/26 10:29:32;;;;;;;14.93;11.00;;;;;;;-0.03;72.68;100525.28;5065446;28;20032;-78
2021/12/26 10:32:08;;;;;;;16.13;11.57;;;;;;;-0.25;72.65;100494.47;5064643;28;20024;-78
2021/12/26 10:34:45;;;;;;;17.27;10.87;;;;;;;-0.25;72.77;100489.22;5047060;28;20167;-81
2021/12/26 10:37:20;;;;;;;16.73;11.30;;;;;;;-0.08;72.77;100512.34;5072179;28;20036;-81
2021/12/26 10:39:51;;;;;;;14.90;10.37;;;;;;;-0.09;72.58;100510.66;5077496;28;20428;-79
2021/12/26 10:42:25;;;;;;;17.90;10.93;;;;;;;-0.10;73.40;100511.53;5064593;28;20063;-79
2021/12/26 10:44:59;;;;;;;15.53;11.90;;;;;;;-0.01;73.02;100513.03;5063107;28;20025;-82
2021/12/26 10:47:32;;;;;;;15.30;11.47;;;;;;;-0.22;72.80;100463.94;5037495;28;20059;-80
2021/12/26 10:50:20;;;;;;;15.63;11.23;;;;;;;0.04;72.74;100505.09;5058243;28;20060;-79
2021/12/26 10:52:55;;;;;;;16.00;12.10;;;;;;;-0.02;73.31;100480.81;5042982;28;20040;-81
2021/12/26 10:55:33;;;;;;;18.30;12.00;;;;;;;0.03;72.73;100475.50;5061074;28;20021;-79
2021/12/26 10:58:04;;;;;;;15.60;11.50;;;;;;;0.19;73.60;100496.84;5040118;28;20029;-78
2021/12/26 11:00:37;;;;;;;16.80;11.87;;;;;;;0.19;73.46;100492.47;5060153;28;20124;-79
2021/12/26 11:03:14;;;;;;;16.93;12.20;;;;;;;0.20;73.38;100483.72;5063919;28;20108;-78
2021/12/26 11:05:45;;;;;;;14.60;12.07;;;;;;;0.26;72.90;100479.25;5054142;28;20037;-80
2021/12/26 11:08:24;;;;;;;17.17;12.20;;;;;;;0.26;73.00;100482.72;5059777;28;20107;-78
2021/12/26 11:10:54;;;;;;;17.97;12.97;;;;;;;0.21;73.82;100467.16;5061888;28;20111;-79
2021/12/26 11:13:30;;;;;;;15.87;11.93;;;;;;;0.31;73.39;100482.59;5049958;28;20024;-78
2021/12/26 11:16:00;;;;;;;16.57;12.50;;;;;;;0.34;73.87;100480.75;5071598;28;20125;-80
2021/12/26 11:18:27;;;;;;;15.63;12.80;;;;;;;0.17;73.15;100449.81;5053118;28;20025;-80
2021/12/26 11:20:53;;;;;;;17.73;12.23;;;;;;;0.43;73.71;100477.88;5060097;28;20035;-79
2021/12/26 11:23:22;;;;;;;19.10;12.60;;;;;;;0.44;73.20;100473.50;5039434;28;20111;-83
2021/12/26 11:25:50;;;;;;;16.93;12.57;;;;;;;0.30;74.15;100449.50;5058678;28;20143;-82
2021/12/26 11:28:18;;;;;;;18.60;12.87;;;;;;;0.46;73.89;100471.72;5054225;28;20765;-82